Time;durP1;ratioP1;P1;durP2;ratioP2;P2;SDS_P1;SDS_P2;PMS_P1;PMS_P2;Temp;Humidity;BMP_temperature;BMP_pressure;BME280_temperature;BME280_humidity;BME280_pressure;Samples;Min_cycle;Max_cycle;Signal;HPM_P1;HPM_P2
2022/10/30 00:00:55;;;;;;;7.53;2.90;;;14.60;99.90;;;;;;5032034;28;20470;-74
2022/10/30 00:03:20;;;;;;;6.45;3.25;;;14.50;99.90;;;;;;5030204;28;20076;-74
2022/10/30 00:05:48;;;;;;;7.85;4.18;;;14.60;99.90;;;;;;5017654;28;20457;-74
2022/10/30 00:08:15;;;;;;;7.30;3.53;;;14.50;99.90;;;;;;5030373;28;20563;-74
2022/10/30 00:10:42;;;;;;;9.45;3.78;;;14.60;99.90;;;;;;5031537;28;20037;-74
2022/10/30 00:13:09;;;;;;;6.40;3.15;;;14.50;99.90;;;;;;5032430;28;20134;-74
2022/10/30 00:15:34;;;;;;;7.05;3.05;;;14.50;99.90;;;;;;5033110;28;20140;-74
2022/10/30 00:18:01;;;;;;;8.40;3.30;;;14.50;99.90;;;;;;5017138;28;20494;-74
2022/10/30 00:20:26;;;;;;;5.90;3.03;;;14.50;99.90;;;;;;5034637;28;20025;-74
2022/10/30 00:22:52;;;;;;;9.38;3.08;;;14.50;99.90;;;;;;5030780;28;20552;-74
2022/10/30 00:25:17;;;;;;;5.82;2.67;;;14.40;99.90;;;;;;5030475;28;20029;-72
2022/10/30 00:27:43;;;;;;;7.63;3.35;;;14.40;99.90;;;;;;5028755;28;20030;-72
2022/10/30 00:30:09;;;;;;;7.78;3.35;;;14.50;99.90;;;;;;5027567;28;20041;-72
2022/10/30 00:32:35;;;;;;;8.43;3.25;;;14.40;99.90;;;;;;5012372;28;20037;-72
2022/10/30 00:35:01;;;;;;;5.70;3.08;;;14.40;99.90;;;;;;5032737;28;20037;-72
2022/10/30 00:37:26;;;;;;;8.57;3.28;;;14.40;99.90;;;;;;5032813;28;20037;-72
2022/10/30 00:39:52;;;;;;;6.90;3.17;;;14.40;99.90;;;;;;5031582;28;20562;-72
2022/10/30 00:42:17;;;;;;;7.10;3.33;;;14.40;99.90;;;;;;5029653;28;20030;-72
2022/10/30 00:44:43;;;;;;;7.63;3.13;;;14.40;99.90;;;;;;5065521;28;20594;-72
2022/10/30 00:47:41;;;;;;;7.03;2.90;;;14.40;99.90;;;;;;5034917;28;20049;-72
2022/10/30 00:50:18;;;;;;;9.10;3.22;;;14.40;99.90;;;;;;5022440;28;20056;-72
2022/10/30 00:53:10;;;;;;;5.50;2.72;;;14.40;99.90;;;;;;5038444;28;20041;-72
2022/10/30 00:55:41;;;;;;;4.63;2.42;;;14.40;99.90;;;;;;5014611;28;20071;-72
2022/10/30 00:58:09;;;;;;;4.22;2.53;;;14.30;99.90;;;;;;5031847;28;20041;-72
2022/10/30 01:00:38;;;;;;;7.35;2.30;;;14.30;99.90;;;;;;5035864;28;20125;-72
2022/10/30 01:03:04;;;;;;;5.10;3.05;;;14.30;99.90;;;;;;5035252;28;20698;-72
2022/10/30 01:05:31;;;;;;;7.35;2.92;;;14.30;99.90;;;;;;5031901;28;20043;-72
2022/10/30 01:07:57;;;;;;;6.10;2.50;;;14.40;99.90;;;;;;5035535;28;20045;-72
2022/10/30 01:10:22;;;;;;;15.07;2.47;;;14.40;99.90;;;;;;5031389;28;20045;-72
2022/10/30 01:12:51;;;;;;;6.18;2.63;;;14.30;99.90;;;;;;5032672;28;20042;-72
2022/10/30 01:15:19;;;;;;;5.40;2.67;;;14.30;99.90;;;;;;5031920;28;20562;-72
2022/10/30 01:18:05;;;;;;;6.30;2.95;;;14.30;99.90;;;;;;5035236;28;20500;-72
2022/10/30 01:20:57;;;;;;;8.80;3.83;;;14.30;99.90;;;;;;5017280;28;20384;-72
2022/10/30 01:23:34;;;;;;;4.38;2.50;;;14.30;99.90;;;;;;5032485;28;20041;-72
2022/10/30 01:26:31;;;;;;;4.22;2.38;;;14.30;99.90;;;;;;5020822;28;20071;-72
2022/10/30 01:29:22;;;;;;;4.97;2.35;;;14.30;99.90;;;;;;5024145;28;20069;-72
2022/10/30 01:32:07;;;;;;;7.32;3.28;;;14.20;99.90;;;;;;5069717;28;20040;-72
2022/10/30 01:34:45;;;;;;;7.78;2.88;;;14.30;99.90;;;;;;5033688;28;20551;-72
2022/10/30 01:37:35;;;;;;;10.35;3.38;;;14.20;99.90;;;;;;5049758;28;20053;-72
2022/10/30 01:40:10;;;;;;;6.68;3.25;;;14.20;99.90;;;;;;5036815;28;20538;-72
2022/10/30 01:42:47;;;;;;;5.93;3.25;;;14.20;99.90;;;;;;5035099;28;20072;-72
2022/10/30 01:45:22;;;;;;;5.20;2.92;;;14.20;99.90;;;;;;5032189;28;20940;-72
2022/10/30 01:48:04;;;;;;;5.85;3.00;;;14.20;99.90;;;;;;5033102;28;20048;-72
2022/10/30 01:50:58;;;;;;;7.82;3.40;;;14.10;99.90;;;;;;5031894;28;20064;-72
2022/10/30 01:53:56;;;;;;;3.88;2.90;;;14.10;99.90;;;;;;5029242;28;20049;-72
2022/10/30 01:56:40;;;;;;;6.65;2.55;;;14.10;99.90;;;;;;5035492;28;20978;-72
2022/10/30 01:59:11;;;;;;;8.57;3.75;;;14.10;99.90;;;;;;5035158;28;20403;-72
2022/10/30 02:01:38;;;;;;;4.55;2.70;;;14.10;99.90;;;;;;5035867;28;20069;-72
2022/10/30 02:04:09;;;;;;;6.07;3.10;;;14.10;99.90;;;;;;5043475;28;20045;-72
2022/10/30 02:06:36;;;;;;;7.93;3.50;;;14.00;99.90;;;;;;5044495;28;20037;-72
2022/10/30 02:09:02;;;;;;;5.80;3.10;;;14.00;99.90;;;;;;5025590;28;20537;-72
2022/10/30 02:11:30;;;;;;;10.60;3.00;;;14.00;99.90;;;;;;5042866;28;20047;-72
2022/10/30 02:13:57;;;;;;;6.55;3.03;;;14.00;99.90;;;;;;5026103;28;20115;-72
2022/10/30 02:16:23;;;;;;;7.20;2.80;;;14.00;99.90;;;;;;5024941;28;20103;-72
2022/10/30 02:18:48;;;;;;;5.97;2.85;;;14.00;99.90;;;;;;5027457;28;20596;-72
2022/10/30 02:21:14;;;;;;;6.57;2.42;;;14.00;99.90;;;;;;5026013;28;20509;-72
2022/10/30 02:23:40;;;;;;;8.50;3.03;;;14.00;99.90;;;;;;5042662;28;20097;-72
2022/10/30 02:26:05;;;;;;;8.65;3.28;;;14.00;99.90;;;;;;5043039;28;20183;-72
2022/10/30 02:28:31;;;;;;;7.47;2.85;;;14.00;99.90;;;;;;5041948;28;20037;-72
2022/10/30 02:30:57;;;;;;;6.88;2.58;;;14.00;99.90;;;;;;5039076;28;20670;-72
2022/10/30 02:33:25;;;;;;;4.68;2.90;;;14.00;99.90;;;;;;5028457;28;20049;-72
2022/10/30 02:35:52;;;;;;;7.88;2.85;;;14.00;99.90;;;;;;5043702;28;20047;-72
2022/10/30 02:38:17;;;;;;;4.32;1.98;;;14.00;99.90;;;;;;5041977;28;20810;-72
2022/10/30 02:40:43;;;;;;;8.55;2.67;;;14.00;99.90;;;;;;5042595;28;20045;-72
2022/10/30 02:43:09;;;;;;;4.60;2.20;;;14.00;99.90;;;;;;5043442;28;20039;-72
2022/10/30 02:45:34;;;;;;;8.02;2.72;;;14.00;99.90;;;;;;5038757;28;20083;-72
2022/10/30 02:48:00;;;;;;;7.18;3.42;;;14.00;99.90;;;;;;5041742;28;20033;-72
2022/10/30 02:50:26;;;;;;;6.55;3.00;;;14.00;99.90;;;;;;5041979;28;20041;-72
2022/10/30 02:52:51;;;;;;;6.38;3.15;;;14.00;99.90;;;;;;5028635;28;20399;-72
2022/10/30 02:55:17;;;;;;;4.68;3.00;;;14.00;99.90;;;;;;5042998;28;20048;-72
2022/10/30 02:57:43;;;;;;;4.55;2.38;;;14.00;99.90;;;;;;5040668;28;20540;-72
2022/10/30 03:00:10;;;;;;;10.48;3.05;;;13.90;99.90;;;;;;5040245;28;20054;-72
2022/10/30 03:02:35;;;;;;;5.68;2.90;;;13.90;99.90;;;;;;5043377;28;20055;-72
2022/10/30 03:05:01;;;;;;;8.05;3.13;;;13.90;99.90;;;;;;5043633;28;20792;-72
2022/10/30 03:07:27;;;;;;;5.40;2.95;;;13.90;99.90;;;;;;5043141;28;20021;-72
2022/10/30 03:09:53;;;;;;;9.02;3.03;;;13.90;99.90;;;;;;5039920;28;20446;-72
2022/10/30 03:12:19;;;;;;;6.18;3.17;;;13.80;99.90;;;;;;5041240;28;20804;-74
2022/10/30 03:14:45;;;;;;;8.93;2.97;;;13.80;99.90;;;;;;5041813;28;20056;-74
2022/10/30 03:17:11;;;;;;;3.78;2.25;;;13.80;99.90;;;;;;5042107;28;20496;-74
2022/10/30 03:19:36;;;;;;;7.60;2.67;;;13.80;99.90;;;;;;5042393;28;20056;-74
2022/10/30 03:22:02;;;;;;;4.45;3.15;;;13.80;99.90;;;;;;5043092;28;20029;-74
2022/10/30 03:24:28;;;;;;;6.40;3.20;;;13.80;99.90;;;;;;5024755;28;20052;-74
2022/10/30 03:26:53;;;;;;;8.57;3.42;;;13.80;99.90;;;;;;5022691;28;20036;-74
2022/10/30 03:29:19;;;;;;;5.65;3.05;;;13.80;99.90;;;;;;5042223;28;20500;-74
2022/10/30 03:31:45;;;;;;;9.05;2.88;;;13.80;99.90;;;;;;5040439;28;20045;-74
2022/10/30 03:34:11;;;;;;;9.23;3.35;;;13.80;99.90;;;;;;5042479;28;20045;-74
2022/10/30 03:36:36;;;;;;;7.30;2.35;;;13.70;99.90;;;;;;5041136;28;20091;-74
2022/10/30 03:39:03;;;;;;;6.78;2.40;;;13.70;99.90;;;;;;5041507;28;20306;-72
2022/10/30 03:41:28;;;;;;;6.10;2.97;;;13.70;99.90;;;;;;5040205;28;20033;-72
2022/10/30 03:43:54;;;;;;;6.72;2.83;;;13.70;99.90;;;;;;5042352;28;21728;-72
2022/10/30 03:46:20;;;;;;;5.43;2.83;;;13.70;99.90;;;;;;5025269;28;20633;-72
2022/10/30 03:48:48;;;;;;;5.72;2.72;;;13.70;99.90;;;;;;5040636;28;20041;-72
2022/10/30 03:51:14;;;;;;;6.43;2.58;;;13.70;99.90;;;;;;5042438;28;20044;-71
2022/10/30 03:53:39;;;;;;;7.18;3.10;;;13.60;99.90;;;;;;5037858;28;20041;-71
2022/10/30 03:56:06;;;;;;;5.50;2.97;;;13.60;99.90;;;;;;5024316;28;20356;-71
2022/10/30 03:58:31;;;;;;;7.28;3.08;;;13.60;99.90;;;;;;5022205;28;20064;-72
2022/10/30 04:01:05;;;;;;;5.32;2.58;;;13.60;99.90;;;;;;5025261;28;20064;-72
2022/10/30 04:03:30;;;;;;;9.15;3.03;;;13.60;99.90;;;;;;5043262;28;20103;-72
2022/10/30 04:05:56;;;;;;;8.18;2.60;;;13.60;99.90;;;;;;5042249;28;20499;-72
2022/10/30 04:08:22;;;;;;;9.57;2.75;;;13.60;99.90;;;;;;5041345;28;20431;-72
2022/10/30 04:10:47;;;;;;;6.20;3.30;;;13.60;99.90;;;;;;5039975;28;20033;-72
2022/10/30 04:13:15;;;;;;;4.90;2.65;;;13.60;99.90;;;;;;5040521;28;21363;-72
2022/10/30 04:15:41;;;;;;;6.53;2.70;;;13.50;99.90;;;;;;5040031;28;20130;-72
2022/10/30 04:18:10;;;;;;;5.50;3.17;;;13.50;99.90;;;;;;5026386;28;20577;-72
2022/10/30 04:20:35;;;;;;;6.00;2.75;;;13.60;99.90;;;;;;5046483;28;20041;-72
2022/10/30 04:23:04;;;;;;;8.82;2.92;;;13.50;99.90;;;;;;5043942;28;20040;-72
2022/10/30 04:25:30;;;;;;;7.82;3.50;;;13.60;99.90;;;;;;5043479;28;20071;-72
2022/10/30 04:27:56;;;;;;;7.80;2.60;;;13.50;99.90;;;;;;5042994;28;20399;-72
2022/10/30 04:30:23;;;;;;;7.10;3.38;;;13.50;99.90;;;;;;5044594;28;20521;-72
2022/10/30 04:32:51;;;;;;;4.53;2.88;;;13.50;99.90;;;;;;5045192;28;20037;-72
2022/10/30 04:35:18;;;;;;;5.57;2.90;;;13.50;99.90;;;;;;5043720;28;20086;-72
2022/10/30 04:37:54;;;;;;;9.07;3.58;;;13.40;99.90;;;;;;5046046;28;20025;-72
2022/10/30 04:40:25;;;;;;;5.95;2.80;;;13.40;99.90;;;;;;5035721;28;20049;-72
2022/10/30 04:42:51;;;;;;;7.05;2.72;;;13.40;99.90;;;;;;5041394;28;20041;-72
2022/10/30 04:45:16;;;;;;;6.90;3.38;;;13.40;99.90;;;;;;5042783;28;20041;-72
2022/10/30 04:47:42;;;;;;;5.47;2.33;;;13.40;99.90;;;;;;5043049;28;20261;-72
2022/10/30 04:50:08;;;;;;;5.20;2.88;;;13.40;99.90;;;;;;5029188;28;20419;-72
2022/10/30 04:52:34;;;;;;;6.93;2.75;;;13.40;99.90;;;;;;5046228;28;20037;-72
2022/10/30 04:55:00;;;;;;;6.55;2.75;;;13.40;99.90;;;;;;5044561;28;20407;-72
2022/10/30 04:57:26;;;;;;;4.00;2.80;;;13.30;99.90;;;;;;5042458;28;20107;-72
2022/10/30 04:59:51;;;;;;;6.65;3.17;;;13.30;99.90;;;;;;5048216;28;20108;-72
2022/10/30 05:02:20;;;;;;;5.65;3.05;;;13.30;99.90;;;;;;5045207;28;20296;-72
2022/10/30 05:04:45;;;;;;;5.50;2.92;;;13.30;99.90;;;;;;5046137;28;20037;-72
2022/10/30 05:07:12;;;;;;;7.38;3.28;;;13.30;99.90;;;;;;5044542;28;20376;-72
2022/10/30 05:09:37;;;;;;;5.88;3.05;;;13.30;99.90;;;;;;5027431;28;20033;-72
2022/10/30 05:12:03;;;;;;;7.22;3.22;;;13.30;99.90;;;;;;5044503;28;20048;-72
2022/10/30 05:14:30;;;;;;;7.25;3.65;;;13.30;99.90;;;;;;5043333;28;20045;-72
2022/10/30 05:16:56;;;;;;;7.47;3.05;;;13.30;99.90;;;;;;5060257;28;20056;-72
2022/10/30 05:19:21;;;;;;;5.60;2.53;;;13.30;99.90;;;;;;5044119;28;20040;-72
2022/10/30 05:21:47;;;;;;;5.20;3.10;;;13.30;99.90;;;;;;5045345;28;20037;-72
2022/10/30 05:24:13;;;;;;;5.82;2.50;;;13.30;99.90;;;;;;5045016;28;20510;-72
2022/10/30 05:26:38;;;;;;;5.60;3.05;;;13.20;99.90;;;;;;5044332;28;20108;-72
2022/10/30 05:29:04;;;;;;;7.90;3.00;;;13.10;99.90;;;;;;5027349;28;20060;-72
2022/10/30 05:31:29;;;;;;;6.10;2.83;;;13.20;99.90;;;;;;5041306;28;20040;-72
2022/10/30 05:33:55;;;;;;;8.07;3.55;;;13.20;99.90;;;;;;5028594;28;20120;-72
2022/10/30 05:36:21;;;;;;;4.70;2.80;;;13.20;99.90;;;;;;5044748;28;20032;-72
2022/10/30 05:38:47;;;;;;;10.80;3.10;;;13.20;99.90;;;;;;5044731;28;20037;-72
2022/10/30 05:41:12;;;;;;;5.45;2.75;;;13.20;99.90;;;;;;5046331;28;20324;-72
2022/10/30 05:43:38;;;;;;;13.45;3.13;;;13.20;99.90;;;;;;5041277;28;20203;-72
2022/10/30 05:46:04;;;;;;;8.75;3.00;;;13.20;99.90;;;;;;5043759;28;20075;-72
2022/10/30 05:48:29;;;;;;;11.52;3.30;;;13.10;99.90;;;;;;5043274;28;20037;-72
2022/10/30 05:50:55;;;;;;;7.72;3.63;;;13.20;99.90;;;;;;5029300;28;20044;-72
2022/10/30 05:53:22;;;;;;;8.10;3.20;;;13.20;99.90;;;;;;5043946;28;21306;-72
2022/10/30 05:55:48;;;;;;;8.20;2.85;;;13.20;99.90;;;;;;5026284;28;20087;-72
2022/10/30 05:58:14;;;;;;;6.82;2.75;;;13.10;99.90;;;;;;5042680;28;20052;-72
2022/10/30 06:00:41;;;;;;;10.88;2.78;;;13.10;99.90;;;;;;5027072;28;20047;-72
2022/10/30 06:03:11;;;;;;;8.10;2.90;;;13.10;99.90;;;;;;5044889;28;20029;-72
2022/10/30 06:05:37;;;;;;;7.38;2.85;;;13.10;99.90;;;;;;5044351;28;20102;-72
2022/10/30 06:08:05;;;;;;;7.18;3.22;;;13.20;99.90;;;;;;5043275;28;20037;-72
2022/10/30 06:10:31;;;;;;;8.80;3.20;;;13.10;99.90;;;;;;5044425;28;20060;-72
2022/10/30 06:13:02;;;;;;;5.75;3.33;;;13.20;99.90;;;;;;5042838;28;20163;-72
2022/10/30 06:15:29;;;;;;;4.88;2.65;;;13.10;99.90;;;;;;5039727;28;20052;-72
2022/10/30 06:17:55;;;;;;;9.05;3.35;;;13.20;99.90;;;;;;5038924;28;20491;-72
2022/10/30 06:20:23;;;;;;;9.00;3.35;;;13.20;99.90;;;;;;5043654;28;20506;-72
2022/10/30 06:22:57;;;;;;;6.72;2.75;;;13.10;99.90;;;;;;5043559;28;20411;-72
2022/10/30 06:25:23;;;;;;;9.50;3.67;;;13.10;99.90;;;;;;5043814;28;20094;-72
2022/10/30 06:27:49;;;;;;;10.32;3.17;;;13.20;99.90;;;;;;5043476;28;20547;-72
2022/10/30 06:30:16;;;;;;;7.70;2.88;;;13.10;99.90;;;;;;5041478;28;20033;-72
2022/10/30 06:32:41;;;;;;;4.03;2.25;;;13.10;99.90;;;;;;5046249;28;20040;-72
2022/10/30 06:35:07;;;;;;;5.63;2.60;;;13.10;99.90;;;;;;5046412;28;20036;-72
2022/10/30 06:37:33;;;;;;;11.77;3.80;;;13.10;99.90;;;;;;5041786;28;20066;-72
2022/10/30 06:39:59;;;;;;;7.43;2.85;;;13.10;99.90;;;;;;5043218;28;20539;-72
2022/10/30 06:42:25;;;;;;;4.85;2.85;;;13.20;99.90;;;;;;5024844;28;20032;-72
2022/10/30 06:44:50;;;;;;;7.15;2.92;;;13.10;99.90;;;;;;5043019;28;20435;-72
2022/10/30 06:47:16;;;;;;;7.82;3.15;;;13.10;99.90;;;;;;5025774;28;20132;-73
2022/10/30 06:49:41;;;;;;;7.20;3.38;;;13.10;99.90;;;;;;5027226;28;20059;-71
2022/10/30 06:52:07;;;;;;;4.78;2.90;;;13.10;99.90;;;;;;5042887;28;20474;-71
2022/10/30 06:54:33;;;;;;;9.40;3.00;;;13.10;99.90;;;;;;5026971;28;20045;-71
2022/10/30 06:56:58;;;;;;;7.88;3.15;;;13.10;99.90;;;;;;5040351;28;20037;-71
2022/10/30 06:59:24;;;;;;;8.60;3.10;;;13.00;99.90;;;;;;5042717;28;20114;-71
2022/10/30 07:01:50;;;;;;;4.15;2.60;;;13.00;99.90;;;;;;5040188;28;20037;-72
2022/10/30 07:04:16;;;;;;;15.27;3.65;;;13.00;99.90;;;;;;5037130;28;20044;-71
2022/10/30 07:06:42;;;;;;;7.45;4.03;;;13.00;99.90;;;;;;5041659;28;20041;-72
2022/10/30 07:09:07;;;;;;;9.15;3.05;;;13.00;99.90;;;;;;5041117;28;20506;-71
2022/10/30 07:11:33;;;;;;;5.93;3.05;;;13.00;99.90;;;;;;5019109;28;20029;-71
2022/10/30 07:13:59;;;;;;;6.13;3.17;;;13.00;99.90;;;;;;5039884;28;20045;-71
2022/10/30 07:16:24;;;;;;;6.88;3.15;;;13.00;99.90;;;;;;5024922;28;20059;-74
2022/10/30 07:18:50;;;;;;;6.97;3.22;;;13.00;99.90;;;;;;5041473;28;20083;-72
2022/10/30 07:21:17;;;;;;;5.85;2.85;;;13.00;99.90;;;;;;5024177;28;20045;-72
2022/10/30 07:23:43;;;;;;;10.50;3.47;;;13.00;99.90;;;;;;5040225;28;20079;-72
2022/10/30 07:26:08;;;;;;;7.70;3.00;;;13.00;99.90;;;;;;5042182;28;20136;-72
2022/10/30 07:28:34;;;;;;;7.20;3.13;;;13.10;99.90;;;;;;5032145;28;20502;-72
2022/10/30 07:30:59;;;;;;;7.13;3.30;;;13.00;99.90;;;;;;5020607;28;20624;-72
2022/10/30 07:33:26;;;;;;;8.82;2.95;;;13.10;99.90;;;;;;5042413;28;20044;-72
2022/10/30 07:35:51;;;;;;;6.50;3.63;;;13.00;99.90;;;;;;5044535;28;20037;-72
2022/10/30 07:38:17;;;;;;;11.80;3.92;;;13.10;99.90;;;;;;5024298;28;20039;-72
2022/10/30 07:40:43;;;;;;;7.00;3.60;;;13.10;99.90;;;;;;5038310;28;20483;-72
2022/10/30 07:43:12;;;;;;;7.93;2.58;;;13.20;99.90;;;;;;5037329;28;20056;-72
2022/10/30 07:45:37;;;;;;;7.13;3.47;;;13.20;99.90;;;;;;5039336;28;20048;-72
2022/10/30 07:48:03;;;;;;;9.10;3.45;;;13.20;99.90;;;;;;5038935;28;20053;-72
2022/10/30 07:50:29;;;;;;;4.80;3.08;;;13.30;99.90;;;;;;5038557;28;20048;-72
2022/10/30 07:52:55;;;;;;;7.30;3.47;;;13.30;99.90;;;;;;5036678;28;20060;-72
2022/10/30 07:55:21;;;;;;;6.25;3.72;;;13.30;99.90;;;;;;5039112;28;20029;-72
2022/10/30 07:57:47;;;;;;;10.60;4.05;;;13.30;99.90;;;;;;5040818;28;20033;-72
2022/10/30 08:00:14;;;;;;;10.00;3.53;;;13.30;99.90;;;;;;5037563;28;20299;-71
2022/10/30 08:02:40;;;;;;;13.07;4.00;;;13.40;99.90;;;;;;5037936;28;20036;-72
2022/10/30 08:05:06;;;;;;;8.05;3.83;;;13.40;99.90;;;;;;5034756;28;20041;-72
2022/10/30 08:07:35;;;;;;;6.82;2.97;;;13.40;99.90;;;;;;5023944;28;20115;-72
2022/10/30 08:10:00;;;;;;;4.70;2.90;;;13.50;99.90;;;;;;5024594;28;20041;-72
2022/10/30 08:12:26;;;;;;;6.93;3.55;;;13.40;99.90;;;;;;5022192;28;20575;-72
2022/10/30 08:14:52;;;;;;;7.30;3.75;;;13.50;99.90;;;;;;5036825;28;20099;-72
2022/10/30 08:17:19;;;;;;;8.32;3.85;;;13.50;99.90;;;;;;5038546;28;20118;-72
2022/10/30 08:19:44;;;;;;;8.85;3.70;;;13.50;99.90;;;;;;5040949;28;20533;-74
2022/10/30 08:22:10;;;;;;;9.15;3.85;;;13.50;99.90;;;;;;5039007;28;20037;-73
2022/10/30 08:24:36;;;;;;;7.07;3.50;;;13.50;99.90;;;;;;5054845;28;20056;-72
2022/10/30 08:27:02;;;;;;;10.32;3.85;;;13.60;99.90;;;;;;5025128;28;20040;-72
2022/10/30 08:29:27;;;;;;;7.28;3.67;;;13.60;99.90;;;;;;5041150;28;20041;-72
2022/10/30 08:31:53;;;;;;;7.63;3.85;;;13.60;99.90;;;;;;5035398;28;20052;-72
2022/10/30 08:34:19;;;;;;;7.32;3.42;;;13.60;99.90;;;;;;5040643;28;20044;-72
2022/10/30 08:36:50;;;;;;;8.27;4.18;;;13.60;99.90;;;;;;5039944;28;20036;-72
2022/10/30 08:39:17;;;;;;;7.65;3.38;;;13.60;99.90;;;;;;5037719;28;20589;-72
2022/10/30 08:41:43;;;;;;;5.68;3.45;;;13.70;99.90;;;;;;5040210;28;20698;-71
2022/10/30 08:44:08;;;;;;;13.35;4.65;;;13.70;99.90;;;;;;5038060;28;20049;-72
2022/10/30 08:46:34;;;;;;;7.88;3.53;;;13.70;99.90;;;;;;5037090;28;20398;-72
2022/10/30 08:49:00;;;;;;;6.50;3.28;;;13.70;99.90;;;;;;5022600;28;20037;-72
2022/10/30 08:51:26;;;;;;;6.03;3.90;;;13.80;99.90;;;;;;5042931;28;20037;-72
2022/10/30 08:53:51;;;;;;;8.85;3.65;;;13.80;99.90;;;;;;5041227;28;20047;-71
2022/10/30 08:56:17;;;;;;;6.75;3.45;;;13.80;99.90;;;;;;5035664;28;20072;-72
2022/10/30 08:58:43;;;;;;;6.05;3.53;;;13.80;99.90;;;;;;5037376;28;20045;-72
2022/10/30 09:01:09;;;;;;;9.75;3.95;;;13.90;99.90;;;;;;5039258;28;20047;-72
2022/10/30 09:03:34;;;;;;;7.32;3.00;;;13.90;99.90;;;;;;5039028;28;20037;-71
2022/10/30 09:06:00;;;;;;;11.05;3.75;;;14.00;99.90;;;;;;5035683;28;20036;-71
2022/10/30 09:08:27;;;;;;;8.55;3.95;;;14.00;99.90;;;;;;5041576;28;21375;-73
2022/10/30 09:10:57;;;;;;;11.93;4.88;;;14.00;99.90;;;;;;5039459;28;20037;-73
2022/10/30 09:13:24;;;;;;;8.30;4.32;;;14.10;99.90;;;;;;5037909;28;20068;-72
2022/10/30 09:15:50;;;;;;;9.18;4.15;;;14.10;99.90;;;;;;5043444;28;20486;-73
2022/10/30 09:18:16;;;;;;;6.80;3.30;;;14.10;99.90;;;;;;5045530;28;20057;-73
2022/10/30 09:20:41;;;;;;;11.68;4.30;;;14.20;99.90;;;;;;5047354;28;20044;-73
2022/10/30 09:23:07;;;;;;;7.60;3.88;;;14.20;99.90;;;;;;5048532;28;20178;-73
2022/10/30 09:25:33;;;;;;;6.07;3.42;;;14.20;99.90;;;;;;5049060;28;20072;-73
2022/10/30 09:27:58;;;;;;;7.20;3.55;;;14.30;99.90;;;;;;5030598;28;20048;-73
2022/10/30 09:30:24;;;;;;;5.70;3.13;;;14.30;99.90;;;;;;5048627;28;20171;-73
2022/10/30 09:32:58;;;;;;;7.57;3.50;;;14.30;99.90;;;;;;5049737;28;20120;-73
2022/10/30 09:35:24;;;;;;;7.95;4.00;;;14.40;99.90;;;;;;5032621;28;20405;-73
2022/10/30 09:37:50;;;;;;;8.38;4.20;;;14.40;99.90;;;;;;5048619;28;20498;-73
2022/10/30 09:40:28;;;;;;;9.82;4.70;;;14.50;99.90;;;;;;5030972;28;20077;-73
2022/10/30 09:43:00;;;;;;;7.82;3.05;;;14.50;99.90;;;;;;5047895;28;20487;-73
2022/10/30 09:46:00;;;;;;;5.63;2.80;;;14.60;99.90;;;;;;5048708;28;20052;-73
2022/10/30 09:48:37;;;;;;;8.70;3.80;;;14.60;99.90;;;;;;5049501;28;20629;-72
2022/10/30 09:51:26;;;;;;;6.78;3.72;;;14.60;99.90;;;;;;5049499;28;20132;-72
2022/10/30 09:54:22;;;;;;;9.02;3.80;;;14.60;99.90;;;;;;5045339;28;20045;-72
2022/10/30 09:57:24;;;;;;;6.07;3.38;;;14.70;99.90;;;;;;5030866;28;20029;-72
2022/10/30 10:00:12;;;;;;;7.15;3.42;;;14.70;99.90;;;;;;5048804;28;20097;-72
2022/10/30 10:02:56;;;;;;;8.05;3.03;;;14.80;99.90;;;;;;5049292;28;20037;-72
2022/10/30 10:05:24;;;;;;;11.77;3.75;;;14.80;99.90;;;;;;5049023;28;20045;-72
2022/10/30 10:08:02;;;;;;;5.93;3.05;;;14.90;99.90;;;;;;5046579;28;20032;-72
2022/10/30 10:10:45;;;;;;;6.05;2.95;;;15.00;99.90;;;;;;5048385;28;20554;-72
2022/10/30 10:13:31;;;;;;;6.10;3.28;;;15.10;99.90;;;;;;5031397;28;20044;-72
2022/10/30 10:16:06;;;;;;;8.10;3.47;;;15.10;99.90;;;;;;5031159;28;20052;-72
2022/10/30 10:18:38;;;;;;;7.13;2.90;;;15.20;99.90;;;;;;5048508;28;20053;-72
2022/10/30 10:21:20;;;;;;;10.18;3.83;;;15.20;99.90;;;;;;5047819;28;20045;-72
2022/10/30 10:23:57;;;;;;;9.32;3.92;;;15.30;99.90;;;;;;5046063;28;20028;-72
2022/10/30 10:26:30;;;;;;;6.78;3.47;;;15.30;99.90;;;;;;5030574;28;20078;-72
2022/10/30 10:29:24;;;;;;;8.00;3.03;;;15.40;99.90;;;;;;5046405;28;20076;-72
2022/10/30 10:32:18;;;;;;;7.28;2.88;;;15.50;99.90;;;;;;5027863;28;20063;-72
2022/10/30 10:34:44;;;;;;;12.60;3.15;;;15.60;99.90;;;;;;5028893;28;20052;-72
2022/10/30 10:37:43;;;;;;;6.47;2.72;;;15.60;99.90;;;;;;5044713;28;20474;-72
2022/10/30 10:40:36;;;;;;;4.57;2.72;;;15.60;99.90;;;;;;5047490;28;20052;-73
2022/10/30 10:43:07;;;;;;;7.38;3.40;;;15.60;99.90;;;;;;5032086;28;20562;-76
2022/10/30 10:45:53;;;;;;;5.90;3.30;;;15.60;99.90;;;;;;5025277;28;20069;-73
2022/10/30 10:48:26;;;;;;;7.65;3.33;;;15.60;99.90;;;;;;5022035;28;20406;-73
2022/10/30 10:51:00;;;;;;;6.90;2.95;;;15.70;99.90;;;;;;5027363;28;20123;-73
2022/10/30 10:53:43;;;;;;;6.55;2.30;;;15.70;99.90;;;;;;5054702;28;20041;-74
2022/10/30 10:56:09;;;;;;;6.47;2.65;;;15.70;99.90;;;;;;5025388;28;20597;-73
2022/10/30 10:58:38;;;;;;;6.07;2.80;;;15.70;99.90;;;;;;5028122;28;20440;-73
2022/10/30 11:01:11;;;;;;;7.43;2.58;;;15.80;99.90;;;;;;5024781;28;20040;-74
2022/10/30 11:03:44;;;;;;;6.28;2.83;;;15.80;99.90;;;;;;5043710;28;20033;-73
2022/10/30 11:06:28;;;;;;;6.38;2.78;;;15.80;99.90;;;;;;5044522;28;20462;-73
2022/10/30 11:09:21;;;;;;;5.70;2.70;;;15.80;99.90;;;;;;5030645;28;20045;-73
2022/10/30 11:11:52;;;;;;;7.15;3.03;;;15.90;99.90;;;;;;5051891;28;20518;-74
2022/10/30 11:14:27;;;;;;;6.47;2.90;;;15.90;99.90;;;;;;5038894;28;20446;-74
2022/10/30 11:17:16;;;;;;;7.07;2.75;;;15.90;99.90;;;;;;5037067;28;20041;-74
2022/10/30 11:19:42;;;;;;;5.15;2.92;;;15.90;99.90;;;;;;5029217;28;20091;-74
2022/10/30 11:22:22;;;;;;;5.68;2.70;;;15.90;99.90;;;;;;5039961;28;20041;-74
2022/10/30 11:24:48;;;;;;;7.00;2.92;;;15.90;99.90;;;;;;5042239;28;20240;-74
2022/10/30 11:27:22;;;;;;;4.85;2.72;;;15.90;99.90;;;;;;5039299;28;20048;-74
2022/10/30 11:29:50;;;;;;;8.82;3.35;;;15.90;99.90;;;;;;5038725;28;20098;-74
2022/10/30 11:32:25;;;;;;;7.60;2.90;;;16.00;99.90;;;;;;5040705;28;20388;-74
2022/10/30 11:35:12;;;;;;;5.65;2.88;;;16.10;99.90;;;;;;5024768;28;20041;-74
2022/10/30 11:37:40;;;;;;;6.88;3.00;;;16.00;99.90;;;;;;5042049;28;20229;-74
2022/10/30 11:40:16;;;;;;;8.85;3.28;;;16.10;99.90;;;;;;5034969;28;20033;-74
2022/10/30 11:42:45;;;;;;;7.10;3.10;;;16.10;99.90;;;;;;5070157;28;20040;-74
2022/10/30 11:45:27;;;;;;;5.30;2.40;;;16.10;99.90;;;;;;5038017;28;20087;-74
2022/10/30 11:47:55;;;;;;;5.28;3.00;;;16.10;99.90;;;;;;5039950;28;20036;-74
2022/10/30 11:50:24;;;;;;;6.35;2.40;;;16.20;99.90;;;;;;5036223;28;20454;-74
2022/10/30 11:53:00;;;;;;;6.43;2.97;;;16.20;99.90;;;;;;5032751;28;20119;-74
2022/10/30 11:55:39;;;;;;;7.20;2.90;;;16.20;99.90;;;;;;5037989;28;20479;-74
2022/10/30 11:58:09;;;;;;;8.52;2.88;;;16.30;99.90;;;;;;5039623;28;20045;-74
2022/10/30 12:00:36;;;;;;;6.53;2.50;;;16.30;99.90;;;;;;5037392;28;20491;-74
2022/10/30 12:03:02;;;;;;;7.80;3.03;;;16.40;99.90;;;;;;5038593;28;20177;-74
2022/10/30 12:05:30;;;;;;;4.82;2.67;;;16.40;99.90;;;;;;5041255;28;20087;-74
2022/10/30 12:08:07;;;;;;;7.15;2.38;;;16.50;99.90;;;;;;5038820;28;20040;-74
2022/10/30 12:10:41;;;;;;;10.65;3.58;;;16.50;99.90;;;;;;5038410;28;20041;-74
2022/10/30 12:13:16;;;;;;;7.63;2.47;;;16.50;99.90;;;;;;5035714;28;20469;-74
2022/10/30 12:15:44;;;;;;;5.50;2.70;;;16.50;99.90;;;;;;5036207;28;20286;-74
2022/10/30 12:18:30;;;;;;;4.30;2.33;;;16.50;99.90;;;;;;5037181;28;20057;-74
2022/10/30 12:20:57;;;;;;;6.22;2.65;;;16.50;99.90;;;;;;5035976;28;20052;-74
2022/10/30 12:23:25;;;;;;;5.57;2.10;;;16.50;99.90;;;;;;5039462;28;20041;-74
2022/10/30 12:25:52;;;;;;;5.28;2.63;;;16.60;99.90;;;;;;5042222;28;20041;-74
2022/10/30 12:28:20;;;;;;;6.47;2.63;;;16.70;99.90;;;;;;5022934;28;20146;-74
2022/10/30 12:30:55;;;;;;;6.47;2.55;;;16.70;99.90;;;;;;5037543;28;20037;-74
2022/10/30 12:33:39;;;;;;;3.80;1.65;;;16.70;99.90;;;;;;5037937;28;20102;-74
2022/10/30 12:36:08;;;;;;;8.43;2.70;;;16.70;99.90;;;;;;5050401;28;20128;-74
2022/10/30 12:38:49;;;;;;;5.00;2.88;;;16.70;99.90;;;;;;5021726;28;21254;-74
2022/10/30 12:41:23;;;;;;;6.35;2.70;;;16.80;99.90;;;;;;5041942;28;20037;-74
2022/10/30 12:44:12;;;;;;;5.97;2.63;;;16.80;99.90;;;;;;5042527;28;20147;-74
2022/10/30 12:46:45;;;;;;;4.75;2.70;;;16.80;99.90;;;;;;5042242;28;20120;-74
2022/10/30 12:49:29;;;;;;;5.65;2.47;;;16.90;99.90;;;;;;5040993;28;20044;-74
2022/10/30 12:52:17;;;;;;;5.35;2.58;;;16.90;99.90;;;;;;5040791;28;20040;-74
2022/10/30 12:54:58;;;;;;;6.30;2.55;;;16.90;99.90;;;;;;5044033;28;20044;-74
2022/10/30 12:57:33;;;;;;;8.15;2.15;;;16.90;99.90;;;;;;5045197;28;20047;-74
2022/10/30 13:00:15;;;;;;;6.55;2.42;;;16.90;99.90;;;;;;5047983;28;20068;-74